sensor_id;sensor_type;location;lat;lon;timestamp;temperature;humidity
46438;DHT22;32137;48.728;9.142;2024-01-07T00:01:25;7.00;99.90
46438;DHT22;32137;48.728;9.142;2024-01-07T00:03:51;7.10;99.90
46438;DHT22;32137;48.728;9.142;2024-01-07T00:06:17;7.10;99.90
46438;DHT22;32137;48.728;9.142;2024-01-07T00:08:42;7.10;99.90
46438;DHT22;32137;48.728;9.142;2024-01-07T00:11:07;7.10;99.90
46438;DHT22;32137;48.728;9.142;2024-01-07T00:13:33;7.10;99.90
46438;DHT22;32137;48.728;9.142;2024-01-07T00:15:58;7.00;99.90
46438;DHT22;32137;48.728;9.142;2024-01-07T00:18:24;7.00;99.90
46438;DHT22;32137;48.728;9.142;2024-01-07T00:20:50;7.10;99.90
46438;DHT22;32137;48.728;9.142;2024-01-07T00:23:15;7.00;99.90
46438;DHT22;32137;48.728;9.142;2024-01-07T00:25:40;7.00;99.90
46438;DHT22;32137;48.728;9.142;2024-01-07T00:28:06;7.00;99.90
46438;DHT22;32137;48.728;9.142;2024-01-07T00:30:31;7.10;99.90
46438;DHT22;32137;48.728;9.142;2024-01-07T00:32:57;7.00;99.90
46438;DHT22;32137;48.728;9.142;2024-01-07T00:35:22;7.00;99.90
46438;DHT22;32137;48.728;9.142;2024-01-07T00:37:48;7.00;99.90
46438;DHT22;32137;48.728;9.142;2024-01-07T00:40:13;7.00;99.90
46438;DHT22;32137;48.728;9.142;2024-01-07T00:42:39;7.10;99.90
46438;DHT22;32137;48.728;9.142;2024-01-07T00:45:04;7.10;99.90
46438;DHT22;32137;48.728;9.142;2024-01-07T00:47:30;7.00;99.90
46438;DHT22;32137;48.728;9.142;2024-01-07T00:49:55;7.00;99.90
46438;DHT22;32137;48.728;9.142;2024-01-07T00:52:21;7.00;99.90
46438;DHT22;32137;48.728;9.142;2024-01-07T00:54:48;7.10;99.90
46438;DHT22;32137;48.728;9.142;2024-01-07T00:57:14;7.10;99.90
46438;DHT22;32137;48.728;9.142;2024-01-07T00:59:39;7.00;99.90
46438;DHT22;32137;48.728;9.142;2024-01-07T01:02:05;7.10;99.90
46438;DHT22;32137;48.728;9.142;2024-01-07T01:04:30;7.00;99.90
46438;DHT22;32137;48.728;9.142;2024-01-07T01:06:56;7.10;99.90
46438;DHT22;32137;48.728;9.142;2024-01-07T01:09:21;7.00;99.90
46438;DHT22;32137;48.728;9.142;2024-01-07T01:11:47;7.00;99.90
46438;DHT22;32137;48.728;9.142;2024-01-07T01:14:12;6.90;99.90
46438;DHT22;32137;48.728;9.142;2024-01-07T01:16:38;7.00;99.90
46438;DHT22;32137;48.728;9.142;2024-01-07T01:19:03;7.00;99.90
46438;DHT22;32137;48.728;9.142;2024-01-07T01:21:29;7.00;99.90
46438;DHT22;32137;48.728;9.142;2024-01-07T01:23:54;6.90;99.90
46438;DHT22;32137;48.728;9.142;2024-01-07T01:26:20;6.90;99.90
46438;DHT22;32137;48.728;9.142;2024-01-07T01:28:45;6.90;99.90
46438;DHT22;32137;48.728;9.142;2024-01-07T01:31:14;6.90;99.90
46438;DHT22;32137;48.728;9.142;2024-01-07T01:33:40;6.90;99.90
46438;DHT22;32137;48.728;9.142;2024-01-07T01:36:05;7.00;99.90
46438;DHT22;32137;48.728;9.142;2024-01-07T01:38:33;6.90;99.90
46438;DHT22;32137;48.728;9.142;2024-01-07T01:40:58;7.00;99.90
46438;DHT22;32137;48.728;9.142;2024-01-07T01:43:24;6.90;99.90
46438;DHT22;32137;48.728;9.142;2024-01-07T01:45:50;6.90;99.90
46438;DHT22;32137;48.728;9.142;2024-01-07T01:48:16;6.90;99.90
46438;DHT22;32137;48.728;9.142;2024-01-07T01:50:41;6.90;99.90
46438;DHT22;32137;48.728;9.142;2024-01-07T01:53:07;7.00;99.90
46438;DHT22;32137;48.728;9.142;2024-01-07T01:55:32;6.90;99.90
46438;DHT22;32137;48.728;9.142;2024-01-07T01:57:58;6.90;99.90
46438;DHT22;32137;48.728;9.142;2024-01-07T02:00:29;6.90;99.90
46438;DHT22;32137;48.728;9.142;2024-01-07T02:02:54;6.90;99.90
46438;DHT22;32137;48.728;9.142;2024-01-07T02:05:20;6.80;99.90
46438;DHT22;32137;48.728;9.142;2024-01-07T02:07:45;6.80;99.90
46438;DHT22;32137;48.728;9.142;2024-01-07T02:10:11;6.70;99.90
46438;DHT22;32137;48.728;9.142;2024-01-07T02:12:37;6.90;99.90
46438;DHT22;32137;48.728;9.142;2024-01-07T02:15:03;6.80;99.90
46438;DHT22;32137;48.728;9.142;2024-01-07T02:17:28;6.80;99.90
46438;DHT22;32137;48.728;9.142;2024-01-07T02:19:54;6.70;99.90
46438;DHT22;32137;48.728;9.142;2024-01-07T02:22:19;6.80;99.90
46438;DHT22;32137;48.728;9.142;2024-01-07T02:24:45;6.80;99.90
46438;DHT22;32137;48.728;9.142;2024-01-07T02:27:10;6.80;99.90
46438;DHT22;32137;48.728;9.142;2024-01-07T02:29:36;6.80;99.90
46438;DHT22;32137;48.728;9.142;2024-01-07T02:32:01;6.80;99.90
46438;DHT22;32137;48.728;9.142;2024-01-07T02:34:27;6.80;99.90
46438;DHT22;32137;48.728;9.142;2024-01-07T02:36:52;6.80;99.90
46438;DHT22;32137;48.728;9.142;2024-01-07T02:39:18;6.80;99.90
46438;DHT22;32137;48.728;9.142;2024-01-07T02:41:43;6.90;99.90
46438;DHT22;32137;48.728;9.142;2024-01-07T02:44:09;6.80;99.90
46438;DHT22;32137;48.728;9.142;2024-01-07T02:46:34;6.70;99.90
46438;DHT22;32137;48.728;9.142;2024-01-07T02:49:00;6.80;99.90
46438;DHT22;32137;48.728;9.142;2024-01-07T02:51:25;6.80;99.90
46438;DHT22;32137;48.728;9.142;2024-01-07T02:53:51;6.70;99.90
46438;DHT22;32137;48.728;9.142;2024-01-07T02:56:16;6.80;99.90
46438;DHT22;32137;48.728;9.142;2024-01-07T02:58:41;6.90;99.90
46438;DHT22;32137;48.728;9.142;2024-01-07T03:01:10;6.80;99.90
46438;DHT22;32137;48.728;9.142;2024-01-07T03:03:35;6.80;99.90
46438;DHT22;32137;48.728;9.142;2024-01-07T03:06:01;6.80;99.90
46438;DHT22;32137;48.728;9.142;2024-01-07T03:08:27;6.80;99.90
46438;DHT22;32137;48.728;9.142;2024-01-07T03:10:53;6.80;99.90
46438;DHT22;32137;48.728;9.142;2024-01-07T03:13:18;6.80;99.90
46438;DHT22;32137;48.728;9.142;2024-01-07T03:15:44;6.80;99.90
46438;DHT22;32137;48.728;9.142;2024-01-07T03:18:09;6.80;99.90
46438;DHT22;32137;48.728;9.142;2024-01-07T03:20:35;6.70;99.90
46438;DHT22;32137;48.728;9.142;2024-01-07T03:23:00;6.70;99.90
46438;DHT22;32137;48.728;9.142;2024-01-07T03:25:26;6.80;99.90
46438;DHT22;32137;48.728;9.142;2024-01-07T03:27:51;6.70;99.90
46438;DHT22;32137;48.728;9.142;2024-01-07T03:30:17;6.70;99.90
46438;DHT22;32137;48.728;9.142;2024-01-07T03:32:42;6.60;99.90
46438;DHT22;32137;48.728;9.142;2024-01-07T03:35:08;6.70;99.90
46438;DHT22;32137;48.728;9.142;2024-01-07T03:37:36;6.60;99.90
46438;DHT22;32137;48.728;9.142;2024-01-07T03:40:01;6.80;99.90
46438;DHT22;32137;48.728;9.142;2024-01-07T03:42:27;6.80;99.90
46438;DHT22;32137;48.728;9.142;2024-01-07T03:44:53;6.80;99.90
46438;DHT22;32137;48.728;9.142;2024-01-07T03:47:18;6.80;99.90
46438;DHT22;32137;48.728;9.142;2024-01-07T03:49:44;6.80;99.90
46438;DHT22;32137;48.728;9.142;2024-01-07T03:52:09;6.70;99.90
46438;DHT22;32137;48.728;9.142;2024-01-07T03:54:34;6.60;99.90
46438;DHT22;32137;48.728;9.142;2024-01-07T03:57:00;6.60;99.90
46438;DHT22;32137;48.728;9.142;2024-01-07T03:59:25;6.70;99.90
46438;DHT22;32137;48.728;9.142;2024-01-07T04:01:55;6.60;99.90
46438;DHT22;32137;48.728;9.142;2024-01-07T04:04:21;6.60;99.90
46438;DHT22;32137;48.728;9.142;2024-01-07T04:06:46;6.70;99.90
46438;DHT22;32137;48.728;9.142;2024-01-07T04:09:12;6.60;99.90
46438;DHT22;32137;48.728;9.142;2024-01-07T04:11:41;6.70;99.90
46438;DHT22;32137;48.728;9.142;2024-01-07T04:14:07;6.60;99.90
46438;DHT22;32137;48.728;9.142;2024-01-07T04:16:32;6.50;99.90
46438;DHT22;32137;48.728;9.142;2024-01-07T04:18:58;6.50;99.90
46438;DHT22;32137;48.728;9.142;2024-01-07T04:21:23;6.50;99.90
46438;DHT22;32137;48.728;9.142;2024-01-07T04:23:49;6.50;99.90
46438;DHT22;32137;48.728;9.142;2024-01-07T04:26:14;6.50;99.90
46438;DHT22;32137;48.728;9.142;2024-01-07T04:28:44;6.50;99.90
46438;DHT22;32137;48.728;9.142;2024-01-07T04:31:09;6.40;99.90
46438;DHT22;32137;48.728;9.142;2024-01-07T04:33:35;6.40;99.90
46438;DHT22;32137;48.728;9.142;2024-01-07T04:36:00;6.40;99.90
46438;DHT22;32137;48.728;9.142;2024-01-07T04:38:26;6.40;99.90
46438;DHT22;32137;48.728;9.142;2024-01-07T04:40:52;6.50;99.90
46438;DHT22;32137;48.728;9.142;2024-01-07T04:43:20;6.50;99.90
46438;DHT22;32137;48.728;9.142;2024-01-07T04:45:46;6.40;99.90
46438;DHT22;32137;48.728;9.142;2024-01-07T04:48:12;6.50;99.90
46438;DHT22;32137;48.728;9.142;2024-01-07T04:50:39;6.40;99.90
46438;DHT22;32137;48.728;9.142;2024-01-07T04:53:04;6.40;99.90
46438;DHT22;32137;48.728;9.142;2024-01-07T04:55:30;6.50;99.90
46438;DHT22;32137;48.728;9.142;2024-01-07T04:57:55;6.40;99.90
46438;DHT22;32137;48.728;9.142;2024-01-07T05:00:21;6.40;99.90
46438;DHT22;32137;48.728;9.142;2024-01-07T05:02:46;6.50;99.90
46438;DHT22;32137;48.728;9.142;2024-01-07T05:05:12;6.40;99.90
46438;DHT22;32137;48.728;9.142;2024-01-07T05:07:37;6.40;99.90
46438;DHT22;32137;48.728;9.142;2024-01-07T05:10:03;6.40;99.90
46438;DHT22;32137;48.728;9.142;2024-01-07T05:12:29;6.50;99.90
46438;DHT22;32137;48.728;9.142;2024-01-07T05:14:55;6.50;99.90
46438;DHT22;32137;48.728;9.142;2024-01-07T05:17:20;6.50;99.90
46438;DHT22;32137;48.728;9.142;2024-01-07T05:19:45;6.30;99.90
46438;DHT22;32137;48.728;9.142;2024-01-07T05:22:11;6.40;99.90
46438;DHT22;32137;48.728;9.142;2024-01-07T05:24:39;6.30;99.90
46438;DHT22;32137;48.728;9.142;2024-01-07T05:27:05;6.40;99.90
46438;DHT22;32137;48.728;9.142;2024-01-07T05:29:31;6.40;99.90
46438;DHT22;32137;48.728;9.142;2024-01-07T05:31:59;6.40;99.90
46438;DHT22;32137;48.728;9.142;2024-01-07T05:34:28;6.40;99.90
46438;DHT22;32137;48.728;9.142;2024-01-07T05:36:54;6.30;99.90
46438;DHT22;32137;48.728;9.142;2024-01-07T05:39:19;6.40;99.90
46438;DHT22;32137;48.728;9.142;2024-01-07T05:41:45;6.30;99.90
46438;DHT22;32137;48.728;9.142;2024-01-07T05:44:11;6.30;99.90
46438;DHT22;32137;48.728;9.142;2024-01-07T05:46:39;6.30;99.90
46438;DHT22;32137;48.728;9.142;2024-01-07T05:49:05;6.30;99.90
46438;DHT22;32137;48.728;9.142;2024-01-07T05:51:30;6.30;99.90
46438;DHT22;32137;48.728;9.142;2024-01-07T05:53:56;6.30;99.90
46438;DHT22;32137;48.728;9.142;2024-01-07T05:56:21;6.30;99.90
46438;DHT22;32137;48.728;9.142;2024-01-07T05:58:47;6.20;99.90
46438;DHT22;32137;48.728;9.142;2024-01-07T06:01:17;6.20;99.90
46438;DHT22;32137;48.728;9.142;2024-01-07T06:03:43;6.20;99.90
46438;DHT22;32137;48.728;9.142;2024-01-07T06:06:09;6.30;99.90
46438;DHT22;32137;48.728;9.142;2024-01-07T06:08:34;6.30;99.90
46438;DHT22;32137;48.728;9.142;2024-01-07T06:11:00;6.20;99.90
46438;DHT22;32137;48.728;9.142;2024-01-07T06:13:25;6.10;99.90
46438;DHT22;32137;48.728;9.142;2024-01-07T06:15:51;6.20;99.90
46438;DHT22;32137;48.728;9.142;2024-01-07T06:18:17;6.20;99.90
46438;DHT22;32137;48.728;9.142;2024-01-07T06:20:42;6.10;99.90
46438;DHT22;32137;48.728;9.142;2024-01-07T06:23:07;6.10;99.90
46438;DHT22;32137;48.728;9.142;2024-01-07T06:25:33;6.20;99.90
46438;DHT22;32137;48.728;9.142;2024-01-07T06:27:59;6.20;99.90
46438;DHT22;32137;48.728;9.142;2024-01-07T06:30:24;6.20;99.90
46438;DHT22;32137;48.728;9.142;2024-01-07T06:32:50;6.10;99.90
46438;DHT22;32137;48.728;9.142;2024-01-07T06:35:16;6.20;99.90
46438;DHT22;32137;48.728;9.142;2024-01-07T06:37:42;6.20;99.90
46438;DHT22;32137;48.728;9.142;2024-01-07T06:40:07;6.10;99.90
46438;DHT22;32137;48.728;9.142;2024-01-07T06:42:33;6.20;99.90
46438;DHT22;32137;48.728;9.142;2024-01-07T06:44:59;6.10;99.90
46438;DHT22;32137;48.728;9.142;2024-01-07T06:47:24;6.10;99.90
46438;DHT22;32137;48.728;9.142;2024-01-07T06:49:49;6.20;99.90
46438;DHT22;32137;48.728;9.142;2024-01-07T06:52:15;6.20;99.90
46438;DHT22;32137;48.728;9.142;2024-01-07T06:54:40;6.20;99.90
46438;DHT22;32137;48.728;9.142;2024-01-07T06:57:06;6.10;99.90
46438;DHT22;32137;48.728;9.142;2024-01-07T06:59:31;6.10;99.90
46438;DHT22;32137;48.728;9.142;2024-01-07T07:01:57;6.10;99.90
46438;DHT22;32137;48.728;9.142;2024-01-07T07:04:22;6.10;99.90
46438;DHT22;32137;48.728;9.142;2024-01-07T07:06:47;6.10;99.90
46438;DHT22;32137;48.728;9.142;2024-01-07T07:09:13;6.00;99.90
46438;DHT22;32137;48.728;9.142;2024-01-07T07:11:40;6.00;99.90
46438;DHT22;32137;48.728;9.142;2024-01-07T07:14:05;6.00;99.90
46438;DHT22;32137;48.728;9.142;2024-01-07T07:16:31;5.90;99.90
46438;DHT22;32137;48.728;9.142;2024-01-07T07:18:57;5.90;99.90
46438;DHT22;32137;48.728;9.142;2024-01-07T07:21:22;5.90;99.90
46438;DHT22;32137;48.728;9.142;2024-01-07T07:23:48;5.90;99.90
46438;DHT22;32137;48.728;9.142;2024-01-07T07:26:13;5.90;99.90
46438;DHT22;32137;48.728;9.142;2024-01-07T07:28:39;6.00;99.90
46438;DHT22;32137;48.728;9.142;2024-01-07T07:31:04;6.00;99.90
46438;DHT22;32137;48.728;9.142;2024-01-07T07:33:30;5.90;99.90
46438;DHT22;32137;48.728;9.142;2024-01-07T07:35:55;6.00;99.90
46438;DHT22;32137;48.728;9.142;2024-01-07T07:38:21;5.90;99.90
46438;DHT22;32137;48.728;9.142;2024-01-07T07:40:46;6.00;99.90
46438;DHT22;32137;48.728;9.142;2024-01-07T07:43:18;5.90;99.90
46438;DHT22;32137;48.728;9.142;2024-01-07T07:45:44;5.90;99.90
46438;DHT22;32137;48.728;9.142;2024-01-07T07:48:09;5.80;99.90
46438;DHT22;32137;48.728;9.142;2024-01-07T07:50:35;5.80;99.90
46438;DHT22;32137;48.728;9.142;2024-01-07T07:53:00;5.80;99.90
46438;DHT22;32137;48.728;9.142;2024-01-07T07:55:25;5.70;99.90
46438;DHT22;32137;48.728;9.142;2024-01-07T07:57:52;5.70;99.90
46438;DHT22;32137;48.728;9.142;2024-01-07T08:00:17;5.70;99.90
46438;DHT22;32137;48.728;9.142;2024-01-07T08:02:43;5.70;99.90
46438;DHT22;32137;48.728;9.142;2024-01-07T08:05:08;5.60;99.90
46438;DHT22;32137;48.728;9.142;2024-01-07T08:07:34;5.60;99.90
46438;DHT22;32137;48.728;9.142;2024-01-07T08:09:59;5.60;99.90
46438;DHT22;32137;48.728;9.142;2024-01-07T08:12:25;5.80;99.90
46438;DHT22;32137;48.728;9.142;2024-01-07T08:14:50;5.70;99.90
46438;DHT22;32137;48.728;9.142;2024-01-07T08:17:16;5.70;99.90
46438;DHT22;32137;48.728;9.142;2024-01-07T08:19:42;5.60;99.90
46438;DHT22;32137;48.728;9.142;2024-01-07T08:22:07;5.50;99.90
46438;DHT22;32137;48.728;9.142;2024-01-07T08:24:34;5.50;99.90
46438;DHT22;32137;48.728;9.142;2024-01-07T08:27:00;5.60;99.90
46438;DHT22;32137;48.728;9.142;2024-01-07T08:29:26;5.40;99.90
46438;DHT22;32137;48.728;9.142;2024-01-07T08:31:51;5.40;99.90
46438;DHT22;32137;48.728;9.142;2024-01-07T08:34:17;5.50;99.90
46438;DHT22;32137;48.728;9.142;2024-01-07T08:36:43;5.50;99.90
46438;DHT22;32137;48.728;9.142;2024-01-07T08:39:08;5.50;99.90
46438;DHT22;32137;48.728;9.142;2024-01-07T08:41:34;5.50;99.90
46438;DHT22;32137;48.728;9.142;2024-01-07T08:43:59;5.50;99.90
46438;DHT22;32137;48.728;9.142;2024-01-07T08:46:25;5.50;99.90
46438;DHT22;32137;48.728;9.142;2024-01-07T08:48:50;5.50;99.90
46438;DHT22;32137;48.728;9.142;2024-01-07T08:51:15;5.30;99.90
46438;DHT22;32137;48.728;9.142;2024-01-07T08:53:41;5.30;99.90
46438;DHT22;32137;48.728;9.142;2024-01-07T08:56:06;5.30;99.90
46438;DHT22;32137;48.728;9.142;2024-01-07T08:58:32;5.40;99.90
46438;DHT22;32137;48.728;9.142;2024-01-07T09:00:57;5.40;99.90
46438;DHT22;32137;48.728;9.142;2024-01-07T09:03:23;5.30;99.90
46438;DHT22;32137;48.728;9.142;2024-01-07T09:05:48;5.40;99.90
46438;DHT22;32137;48.728;9.142;2024-01-07T09:08:14;5.30;99.90
46438;DHT22;32137;48.728;9.142;2024-01-07T09:10:40;5.40;99.90
46438;DHT22;32137;48.728;9.142;2024-01-07T09:13:05;5.40;99.90
46438;DHT22;32137;48.728;9.142;2024-01-07T09:15:31;5.40;99.90
46438;DHT22;32137;48.728;9.142;2024-01-07T09:17:56;5.30;99.90
46438;DHT22;32137;48.728;9.142;2024-01-07T09:20:22;5.40;99.90
46438;DHT22;32137;48.728;9.142;2024-01-07T09:22:47;5.40;99.90
46438;DHT22;32137;48.728;9.142;2024-01-07T09:25:13;5.40;99.90
46438;DHT22;32137;48.728;9.142;2024-01-07T09:27:39;5.40;99.90
46438;DHT22;32137;48.728;9.142;2024-01-07T09:30:05;5.30;99.90
46438;DHT22;32137;48.728;9.142;2024-01-07T09:32:31;5.40;99.90
46438;DHT22;32137;48.728;9.142;2024-01-07T09:34:56;5.50;99.90
46438;DHT22;32137;48.728;9.142;2024-01-07T09:37:23;5.40;99.90
46438;DHT22;32137;48.728;9.142;2024-01-07T09:39:48;5.50;99.90
46438;DHT22;32137;48.728;9.142;2024-01-07T09:42:16;5.50;99.90
46438;DHT22;32137;48.728;9.142;2024-01-07T09:44:42;5.50;99.90
46438;DHT22;32137;48.728;9.142;2024-01-07T09:47:10;5.50;99.90
46438;DHT22;32137;48.728;9.142;2024-01-07T09:49:36;5.40;99.90
46438;DHT22;32137;48.728;9.142;2024-01-07T09:52:01;5.40;99.90
46438;DHT22;32137;48.728;9.142;2024-01-07T09:54:29;5.50;99.90
46438;DHT22;32137;48.728;9.142;2024-01-07T09:56:55;5.40;99.90
46438;DHT22;32137;48.728;9.142;2024-01-07T09:59:23;5.40;99.90
46438;DHT22;32137;48.728;9.142;2024-01-07T10:01:49;5.40;99.90
46438;DHT22;32137;48.728;9.142;2024-01-07T10:04:15;5.40;99.90
46438;DHT22;32137;48.728;9.142;2024-01-07T10:06:41;5.40;99.90
46438;DHT22;32137;48.728;9.142;2024-01-07T10:09:06;5.40;99.90
46438;DHT22;32137;48.728;9.142;2024-01-07T10:11:32;5.30;99.90
46438;DHT22;32137;48.728;9.142;2024-01-07T10:13:58;5.50;99.90
46438;DHT22;32137;48.728;9.142;2024-01-07T10:16:26;5.50;99.90
46438;DHT22;32137;48.728;9.142;2024-01-07T10:18:51;5.40;99.90
46438;DHT22;32137;48.728;9.142;2024-01-07T10:21:17;5.30;99.90
46438;DHT22;32137;48.728;9.142;2024-01-07T10:23:42;5.40;99.90
46438;DHT22;32137;48.728;9.142;2024-01-07T10:26:08;5.30;99.90
46438;DHT22;32137;48.728;9.142;2024-01-07T10:28:33;5.20;99.90
46438;DHT22;32137;48.728;9.142;2024-01-07T10:30:59;5.30;99.90
46438;DHT22;32137;48.728;9.142;2024-01-07T10:33:24;5.30;99.90
46438;DHT22;32137;48.728;9.142;2024-01-07T10:35:55;5.30;99.90
46438;DHT22;32137;48.728;9.142;2024-01-07T10:38:21;5.20;99.90
46438;DHT22;32137;48.728;9.142;2024-01-07T10:40:49;5.10;99.90
46438;DHT22;32137;48.728;9.142;2024-01-07T10:43:15;5.20;99.90
46438;DHT22;32137;48.728;9.142;2024-01-07T10:45:42;5.20;99.90
46438;DHT22;32137;48.728;9.142;2024-01-07T10:48:07;5.10;99.90
46438;DHT22;32137;48.728;9.142;2024-01-07T10:50:34;5.10;99.90
46438;DHT22;32137;48.728;9.142;2024-01-07T10:53:03;5.00;99.90
46438;DHT22;32137;48.728;9.142;2024-01-07T10:55:33;5.10;99.90
46438;DHT22;32137;48.728;9.142;2024-01-07T10:57:59;5.00;99.90
46438;DHT22;32137;48.728;9.142;2024-01-07T11:00:25;4.90;99.90
46438;DHT22;32137;48.728;9.142;2024-01-07T11:07:46;5.00;99.90
46438;DHT22;32137;48.728;9.142;2024-01-07T11:10:16;5.00;99.90
46438;DHT22;32137;48.728;9.142;2024-01-07T11:12:43;5.00;99.90
46438;DHT22;32137;48.728;9.142;2024-01-07T11:15:09;4.90;99.90
46438;DHT22;32137;48.728;9.142;2024-01-07T11:20:06;4.80;99.90
46438;DHT22;32137;48.728;9.142;2024-01-07T11:22:31;4.80;99.90
46438;DHT22;32137;48.728;9.142;2024-01-07T11:24:58;4.60;99.90
46438;DHT22;32137;48.728;9.142;2024-01-07T11:27:25;4.70;99.90
46438;DHT22;32137;48.728;9.142;2024-01-07T11:32:21;4.70;99.90
46438;DHT22;32137;48.728;9.142;2024-01-07T11:34:47;4.70;99.90
46438;DHT22;32137;48.728;9.142;2024-01-07T11:37:14;4.60;99.90
46438;DHT22;32137;48.728;9.142;2024-01-07T11:39:43;4.60;99.90
46438;DHT22;32137;48.728;9.142;2024-01-07T11:42:09;4.60;99.90
46438;DHT22;32137;48.728;9.142;2024-01-07T11:44:35;4.60;99.90
46438;DHT22;32137;48.728;9.142;2024-01-07T11:47:04;4.70;99.90
46438;DHT22;32137;48.728;9.142;2024-01-07T11:49:31;4.70;99.90
46438;DHT22;32137;48.728;9.142;2024-01-07T11:51:57;4.70;99.90
46438;DHT22;32137;48.728;9.142;2024-01-07T11:54:22;4.70;99.90
46438;DHT22;32137;48.728;9.142;2024-01-07T11:56:47;4.70;99.90
46438;DHT22;32137;48.728;9.142;2024-01-07T11:59:13;4.60;99.90
46438;DHT22;32137;48.728;9.142;2024-01-07T12:01:38;4.70;99.90
46438;DHT22;32137;48.728;9.142;2024-01-07T12:04:04;4.70;99.90
46438;DHT22;32137;48.728;9.142;2024-01-07T12:06:29;4.60;99.90
46438;DHT22;32137;48.728;9.142;2024-01-07T12:08:55;4.70;99.90
46438;DHT22;32137;48.728;9.142;2024-01-07T12:11:20;4.60;99.90
46438;DHT22;32137;48.728;9.142;2024-01-07T12:13:46;4.80;99.90
46438;DHT22;32137;48.728;9.142;2024-01-07T12:16:12;4.70;99.90
46438;DHT22;32137;48.728;9.142;2024-01-07T12:18:38;4.70;99.90
46438;DHT22;32137;48.728;9.142;2024-01-07T12:21:04;4.60;99.90
46438;DHT22;32137;48.728;9.142;2024-01-07T12:23:34;4.70;99.90
46438;DHT22;32137;48.728;9.142;2024-01-07T12:26:06;4.60;99.90
46438;DHT22;32137;48.728;9.142;2024-01-07T12:28:32;4.60;99.90
46438;DHT22;32137;48.728;9.142;2024-01-07T12:30:57;4.40;99.90
46438;DHT22;32137;48.728;9.142;2024-01-07T12:33:24;4.50;99.90
46438;DHT22;32137;48.728;9.142;2024-01-07T12:35:50;4.40;99.90
46438;DHT22;32137;48.728;9.142;2024-01-07T12:38:22;4.50;99.90
46438;DHT22;32137;48.728;9.142;2024-01-07T12:40:47;4.40;99.90
46438;DHT22;32137;48.728;9.142;2024-01-07T12:43:13;4.40;99.90
46438;DHT22;32137;48.728;9.142;2024-01-07T12:45:38;4.30;99.90
46438;DHT22;32137;48.728;9.142;2024-01-07T12:48:04;4.30;99.90
46438;DHT22;32137;48.728;9.142;2024-01-07T12:50:30;4.30;99.90
46438;DHT22;32137;48.728;9.142;2024-01-07T12:52:56;4.40;99.90
46438;DHT22;32137;48.728;9.142;2024-01-07T12:55:22;4.50;99.90
46438;DHT22;32137;48.728;9.142;2024-01-07T12:57:48;4.30;99.90
46438;DHT22;32137;48.728;9.142;2024-01-07T13:00:14;4.30;99.90
46438;DHT22;32137;48.728;9.142;2024-01-07T13:02:40;4.40;99.90
46438;DHT22;32137;48.728;9.142;2024-01-07T13:05:06;4.30;99.90
46438;DHT22;32137;48.728;9.142;2024-01-07T13:07:32;4.30;99.90
46438;DHT22;32137;48.728;9.142;2024-01-07T13:09:57;4.30;99.90
46438;DHT22;32137;48.728;9.142;2024-01-07T13:12:22;4.20;99.90
46438;DHT22;32137;48.728;9.142;2024-01-07T13:14:48;4.20;99.90
46438;DHT22;32137;48.728;9.142;2024-01-07T13:17:14;4.10;99.90
46438;DHT22;32137;48.728;9.142;2024-01-07T13:19:40;4.20;99.90
46438;DHT22;32137;48.728;9.142;2024-01-07T13:22:05;4.10;99.90
46438;DHT22;32137;48.728;9.142;2024-01-07T13:24:31;4.30;99.90
46438;DHT22;32137;48.728;9.142;2024-01-07T13:26:56;4.30;99.90
46438;DHT22;32137;48.728;9.142;2024-01-07T13:29:22;4.20;99.90
46438;DHT22;32137;48.728;9.142;2024-01-07T13:31:47;4.20;99.90
46438;DHT22;32137;48.728;9.142;2024-01-07T13:34:13;4.20;99.90
46438;DHT22;32137;48.728;9.142;2024-01-07T13:36:39;4.10;99.90
46438;DHT22;32137;48.728;9.142;2024-01-07T13:39:05;4.10;99.90
46438;DHT22;32137;48.728;9.142;2024-01-07T13:41:32;4.10;99.90
46438;DHT22;32137;48.728;9.142;2024-01-07T13:43:58;4.10;99.90
46438;DHT22;32137;48.728;9.142;2024-01-07T13:46:24;4.20;99.90
46438;DHT22;32137;48.728;9.142;2024-01-07T13:48:50;4.10;99.90
46438;DHT22;32137;48.728;9.142;2024-01-07T13:51:19;4.10;99.90
46438;DHT22;32137;48.728;9.142;2024-01-07T13:53:45;4.20;99.90
46438;DHT22;32137;48.728;9.142;2024-01-07T13:56:13;4.00;99.90
46438;DHT22;32137;48.728;9.142;2024-01-07T13:58:38;4.00;99.90
46438;DHT22;32137;48.728;9.142;2024-01-07T14:01:04;3.80;99.90
46438;DHT22;32137;48.728;9.142;2024-01-07T14:03:32;3.70;99.90
46438;DHT22;32137;48.728;9.142;2024-01-07T14:05:58;3.80;99.90
46438;DHT22;32137;48.728;9.142;2024-01-07T14:08:24;3.70;99.90
46438;DHT22;32137;48.728;9.142;2024-01-07T14:10:49;3.70;99.90
46438;DHT22;32137;48.728;9.142;2024-01-07T14:13:15;3.60;99.90
46438;DHT22;32137;48.728;9.142;2024-01-07T14:15:40;3.50;99.90
46438;DHT22;32137;48.728;9.142;2024-01-07T14:18:05;3.50;99.90
46438;DHT22;32137;48.728;9.142;2024-01-07T14:20:31;3.60;99.90
46438;DHT22;32137;48.728;9.142;2024-01-07T14:22:57;3.50;99.90
46438;DHT22;32137;48.728;9.142;2024-01-07T14:25:22;3.60;99.90
46438;DHT22;32137;48.728;9.142;2024-01-07T14:27:48;3.60;99.90
46438;DHT22;32137;48.728;9.142;2024-01-07T14:30:13;3.70;99.90
46438;DHT22;32137;48.728;9.142;2024-01-07T14:32:39;3.50;99.90
46438;DHT22;32137;48.728;9.142;2024-01-07T14:35:04;3.60;99.90
46438;DHT22;32137;48.728;9.142;2024-01-07T14:37:30;3.60;99.90
46438;DHT22;32137;48.728;9.142;2024-01-07T14:39:56;3.50;99.90
46438;DHT22;32137;48.728;9.142;2024-01-07T14:42:21;3.60;99.90
46438;DHT22;32137;48.728;9.142;2024-01-07T14:44:46;3.50;99.90
46438;DHT22;32137;48.728;9.142;2024-01-07T14:47:12;3.50;99.90
46438;DHT22;32137;48.728;9.142;2024-01-07T14:49:39;3.50;99.90
46438;DHT22;32137;48.728;9.142;2024-01-07T14:52:04;3.50;99.90
46438;DHT22;32137;48.728;9.142;2024-01-07T14:54:30;3.40;99.90
46438;DHT22;32137;48.728;9.142;2024-01-07T14:56:58;3.40;99.90
46438;DHT22;32137;48.728;9.142;2024-01-07T14:59:23;3.50;99.90
46438;DHT22;32137;48.728;9.142;2024-01-07T15:01:49;3.60;99.90
46438;DHT22;32137;48.728;9.142;2024-01-07T15:04:14;3.50;99.90
46438;DHT22;32137;48.728;9.142;2024-01-07T15:06:40;3.50;99.90
46438;DHT22;32137;48.728;9.142;2024-01-07T15:09:06;3.60;99.90
46438;DHT22;32137;48.728;9.142;2024-01-07T15:11:31;3.50;99.90
46438;DHT22;32137;48.728;9.142;2024-01-07T15:13:57;3.50;99.90
46438;DHT22;32137;48.728;9.142;2024-01-07T15:16:23;3.50;99.90
46438;DHT22;32137;48.728;9.142;2024-01-07T15:18:48;3.40;99.90
46438;DHT22;32137;48.728;9.142;2024-01-07T15:21:14;3.30;99.90
46438;DHT22;32137;48.728;9.142;2024-01-07T15:23:39;3.40;99.90
46438;DHT22;32137;48.728;9.142;2024-01-07T15:26:05;3.30;99.90
46438;DHT22;32137;48.728;9.142;2024-01-07T15:28:30;3.30;99.90
46438;DHT22;32137;48.728;9.142;2024-01-07T15:30:55;3.30;99.90
46438;DHT22;32137;48.728;9.142;2024-01-07T15:33:21;3.20;99.90
46438;DHT22;32137;48.728;9.142;2024-01-07T15:35:47;3.30;99.90
46438;DHT22;32137;48.728;9.142;2024-01-07T15:38:13;3.40;99.90
46438;DHT22;32137;48.728;9.142;2024-01-07T15:40:38;3.20;99.90
46438;DHT22;32137;48.728;9.142;2024-01-07T15:43:04;3.20;99.90
46438;DHT22;32137;48.728;9.142;2024-01-07T15:45:29;3.30;99.90